sensor_id;sensor_type;location;lat;lon;timestamp;pressure;altitude;pressure_sealevel;temperature;humidity
47366;BME280;33105;47.964;7.982;2023-07-29T00:01:24;96351.47;;;15.99;100.00
47366;BME280;33105;47.964;7.982;2023-07-29T00:04:27;96337.38;;;16.01;100.00
47366;BME280;33105;47.964;7.982;2023-07-29T00:07:31;96333.19;;;16.03;100.00
47366;BME280;33105;47.964;7.982;2023-07-29T00:19:56;96315.53;;;16.04;100.00
47366;BME280;33105;47.964;7.982;2023-07-29T00:23:38;96307.88;;;16.01;100.00
47366;BME280;33105;47.964;7.982;2023-07-29T00:28:00;96313.16;;;16.11;100.00
47366;BME280;33105;47.964;7.982;2023-07-29T00:31:15;96316.66;;;16.03;100.00
47366;BME280;33105;47.964;7.982;2023-07-29T00:34:48;96315.03;;;16.02;100.00
47366;BME280;33105;47.964;7.982;2023-07-29T00:37:50;96313.69;;;15.99;100.00
47366;BME280;33105;47.964;7.982;2023-07-29T00:40:52;96311.66;;;16.05;100.00
47366;BME280;33105;47.964;7.982;2023-07-29T00:44:04;96310.72;;;16.10;100.00
47366;BME280;33105;47.964;7.982;2023-07-29T00:47:39;96301.97;;;16.08;100.00
47366;BME280;33105;47.964;7.982;2023-07-29T00:50:51;96298.88;;;16.09;100.00
47366;BME280;33105;47.964;7.982;2023-07-29T01:02:57;96291.53;;;16.18;100.00
47366;BME280;33105;47.964;7.982;2023-07-29T01:10:54;96283.34;;;16.27;100.00
47366;BME280;33105;47.964;7.982;2023-07-29T01:14:10;96281.94;;;16.16;100.00
47366;BME280;33105;47.964;7.982;2023-07-29T01:17:23;96281.53;;;16.09;100.00
47366;BME280;33105;47.964;7.982;2023-07-29T01:21:00;96277.22;;;16.16;100.00
47366;BME280;33105;47.964;7.982;2023-07-29T01:25:32;96286.41;;;16.12;100.00
47366;BME280;33105;47.964;7.982;2023-07-29T01:29:43;96282.47;;;16.04;100.00
47366;BME280;33105;47.964;7.982;2023-07-29T01:34:08;96269.81;;;16.03;100.00
47366;BME280;33105;47.964;7.982;2023-07-29T01:38:05;96266.44;;;16.06;100.00
47366;BME280;33105;47.964;7.982;2023-07-29T01:41:08;96272.75;;;16.20;100.00
47366;BME280;33105;47.964;7.982;2023-07-29T01:45:03;96267.25;;;16.07;100.00
47366;BME280;33105;47.964;7.982;2023-07-29T01:48:18;96264.88;;;16.14;100.00
47366;BME280;33105;47.964;7.982;2023-07-29T01:51:28;96264.56;;;16.15;100.00
47366;BME280;33105;47.964;7.982;2023-07-29T01:55:12;96272.94;;;16.10;100.00
47366;BME280;33105;47.964;7.982;2023-07-29T01:58:25;96281.31;;;16.19;100.00
47366;BME280;33105;47.964;7.982;2023-07-29T02:01:31;96276.81;;;16.23;100.00
47366;BME280;33105;47.964;7.982;2023-07-29T02:04:58;96270.72;;;16.12;100.00
47366;BME280;33105;47.964;7.982;2023-07-29T02:08:00;96265.59;;;16.19;100.00
47366;BME280;33105;47.964;7.982;2023-07-29T02:11:07;96263.97;;;16.18;100.00
47366;BME280;33105;47.964;7.982;2023-07-29T02:14:13;96261.00;;;16.28;100.00
47366;BME280;33105;47.964;7.982;2023-07-29T02:17:24;96270.06;;;16.29;100.00
47366;BME280;33105;47.964;7.982;2023-07-29T02:20:35;96259.88;;;16.29;100.00
47366;BME280;33105;47.964;7.982;2023-07-29T02:23:42;96268.91;;;16.44;100.00
47366;BME280;33105;47.964;7.982;2023-07-29T02:26:43;96270.44;;;16.36;100.00
47366;BME280;33105;47.964;7.982;2023-07-29T02:34:22;96268.75;;;16.26;100.00
47366;BME280;33105;47.964;7.982;2023-07-29T02:37:35;96278.28;;;16.43;100.00
47366;BME280;33105;47.964;7.982;2023-07-29T02:40:55;96270.13;;;16.38;100.00
47366;BME280;33105;47.964;7.982;2023-07-29T02:48:23;96263.59;;;16.33;100.00
47366;BME280;33105;47.964;7.982;2023-07-29T02:56:38;96256.28;;;16.29;100.00
47366;BME280;33105;47.964;7.982;2023-07-29T02:59:40;96252.34;;;16.44;100.00
47366;BME280;33105;47.964;7.982;2023-07-29T03:02:43;96244.09;;;16.44;100.00
47366;BME280;33105;47.964;7.982;2023-07-29T03:06:14;96248.38;;;16.36;100.00
47366;BME280;33105;47.964;7.982;2023-07-29T03:09:29;96245.13;;;16.34;100.00
47366;BME280;33105;47.964;7.982;2023-07-29T03:12:35;96247.56;;;16.36;100.00
47366;BME280;33105;47.964;7.982;2023-07-29T03:15:51;96253.59;;;16.38;100.00
47366;BME280;33105;47.964;7.982;2023-07-29T03:18:55;96244.16;;;16.30;100.00
47366;BME280;33105;47.964;7.982;2023-07-29T03:21:57;96247.22;;;16.28;100.00
47366;BME280;33105;47.964;7.982;2023-07-29T03:25:16;96241.00;;;16.23;100.00
47366;BME280;33105;47.964;7.982;2023-07-29T03:28:21;96228.41;;;16.30;100.00
47366;BME280;33105;47.964;7.982;2023-07-29T03:35:37;96231.94;;;16.45;100.00
47366;BME280;33105;47.964;7.982;2023-07-29T03:38:46;96234.75;;;16.31;100.00
47366;BME280;33105;47.964;7.982;2023-07-29T03:41:49;96214.56;;;16.22;100.00
47366;BME280;33105;47.964;7.982;2023-07-29T03:45:14;96223.13;;;16.20;100.00
47366;BME280;33105;47.964;7.982;2023-07-29T03:49:43;96230.78;;;16.23;100.00
47366;BME280;33105;47.964;7.982;2023-07-29T03:57:06;96234.78;;;16.17;100.00
47366;BME280;33105;47.964;7.982;2023-07-29T04:00:37;96222.19;;;16.25;100.00
47366;BME280;33105;47.964;7.982;2023-07-29T04:04:14;96229.41;;;16.34;100.00
47366;BME280;33105;47.964;7.982;2023-07-29T04:07:41;96227.16;;;16.37;100.00
47366;BME280;33105;47.964;7.982;2023-07-29T04:11:39;96223.28;;;16.38;100.00
47366;BME280;33105;47.964;7.982;2023-07-29T04:15:07;96223.28;;;16.38;100.00
47366;BME280;33105;47.964;7.982;2023-07-29T04:18:26;96223.88;;;16.34;100.00
47366;BME280;33105;47.964;7.982;2023-07-29T04:21:28;96213.19;;;16.33;100.00
47366;BME280;33105;47.964;7.982;2023-07-29T04:24:32;96225.47;;;16.27;100.00
47366;BME280;33105;47.964;7.982;2023-07-29T04:27:53;96229.22;;;16.31;100.00
47366;BME280;33105;47.964;7.982;2023-07-29T04:31:01;96240.00;;;16.41;100.00
47366;BME280;33105;47.964;7.982;2023-07-29T04:34:04;96240.28;;;16.53;100.00
47366;BME280;33105;47.964;7.982;2023-07-29T04:37:41;96242.88;;;16.72;100.00
47366;BME280;33105;47.964;7.982;2023-07-29T04:41:28;96244.72;;;16.63;100.00
47366;BME280;33105;47.964;7.982;2023-07-29T04:48:58;96242.75;;;16.41;100.00
47366;BME280;33105;47.964;7.982;2023-07-29T04:52:00;96250.84;;;16.38;100.00
47366;BME280;33105;47.964;7.982;2023-07-29T04:55:02;96260.00;;;16.47;100.00
47366;BME280;33105;47.964;7.982;2023-07-29T04:58:40;96264.09;;;16.49;100.00
47366;BME280;33105;47.964;7.982;2023-07-29T05:02:21;96254.75;;;16.59;100.00
47366;BME280;33105;47.964;7.982;2023-07-29T05:05:38;96252.63;;;16.56;100.00
47366;BME280;33105;47.964;7.982;2023-07-29T05:08:40;96258.31;;;16.73;100.00
47366;BME280;33105;47.964;7.982;2023-07-29T05:11:44;96262.56;;;16.79;100.00
47366;BME280;33105;47.964;7.982;2023-07-29T05:14:58;96255.47;;;16.87;100.00
47366;BME280;33105;47.964;7.982;2023-07-29T05:17:59;96265.66;;;16.78;100.00
47366;BME280;33105;47.964;7.982;2023-07-29T05:21:01;96262.94;;;16.86;100.00
47366;BME280;33105;47.964;7.982;2023-07-29T05:24:04;96261.59;;;16.84;100.00
47366;BME280;33105;47.964;7.982;2023-07-29T05:27:08;96262.81;;;16.91;100.00
47366;BME280;33105;47.964;7.982;2023-07-29T05:30:10;96253.25;;;17.20;100.00
47366;BME280;33105;47.964;7.982;2023-07-29T05:33:12;96244.84;;;17.25;100.00
47366;BME280;33105;47.964;7.982;2023-07-29T05:36:15;96263.56;;;17.37;100.00
47366;BME280;33105;47.964;7.982;2023-07-29T05:39:16;96268.38;;;17.53;100.00
47366;BME280;33105;47.964;7.982;2023-07-29T05:42:19;96279.47;;;17.31;100.00
47366;BME280;33105;47.964;7.982;2023-07-29T05:45:24;96273.03;;;17.44;100.00
47366;BME280;33105;47.964;7.982;2023-07-29T05:48:26;96277.72;;;17.44;100.00
47366;BME280;33105;47.964;7.982;2023-07-29T05:51:28;96272.75;;;17.54;100.00
47366;BME280;33105;47.964;7.982;2023-07-29T05:54:29;96274.84;;;17.49;100.00
47366;BME280;33105;47.964;7.982;2023-07-29T05:57:33;96272.28;;;17.61;100.00
47366;BME280;33105;47.964;7.982;2023-07-29T06:00:34;96284.03;;;17.66;100.00
47366;BME280;33105;47.964;7.982;2023-07-29T06:03:36;96289.78;;;17.79;100.00
47366;BME280;33105;47.964;7.982;2023-07-29T06:06:41;96290.91;;;17.78;100.00
47366;BME280;33105;47.964;7.982;2023-07-29T06:09:42;96277.44;;;17.85;100.00
47366;BME280;33105;47.964;7.982;2023-07-29T06:12:45;96282.97;;;17.85;100.00
47366;BME280;33105;47.964;7.982;2023-07-29T06:15:46;96286.94;;;18.10;100.00
47366;BME280;33105;47.964;7.982;2023-07-29T06:18:49;96284.41;;;18.30;100.00
47366;BME280;33105;47.964;7.982;2023-07-29T06:21:50;96286.97;;;18.35;100.00
47366;BME280;33105;47.964;7.982;2023-07-29T06:24:52;96275.16;;;18.52;100.00
47366;BME280;33105;47.964;7.982;2023-07-29T06:27:55;96282.00;;;18.72;100.00
47366;BME280;33105;47.964;7.982;2023-07-29T06:30:57;96273.19;;;18.53;100.00
47366;BME280;33105;47.964;7.982;2023-07-29T06:34:00;96271.06;;;18.58;100.00
47366;BME280;33105;47.964;7.982;2023-07-29T06:37:01;96264.72;;;18.58;100.00
47366;BME280;33105;47.964;7.982;2023-07-29T06:40:03;96267.47;;;18.23;100.00
47366;BME280;33105;47.964;7.982;2023-07-29T06:43:05;96241.44;;;18.42;100.00
47366;BME280;33105;47.964;7.982;2023-07-29T06:46:07;96252.03;;;18.48;100.00
47366;BME280;33105;47.964;7.982;2023-07-29T06:49:08;96274.63;;;18.42;100.00
47366;BME280;33105;47.964;7.982;2023-07-29T06:52:12;96316.09;;;18.33;100.00
47366;BME280;33105;47.964;7.982;2023-07-29T06:55:17;96309.81;;;18.50;100.00
47366;BME280;33105;47.964;7.982;2023-07-29T06:58:20;96317.59;;;18.48;100.00
47366;BME280;33105;47.964;7.982;2023-07-29T07:01:21;96301.03;;;18.65;100.00
47366;BME280;33105;47.964;7.982;2023-07-29T07:04:28;96313.88;;;18.52;100.00
47366;BME280;33105;47.964;7.982;2023-07-29T07:07:37;96325.09;;;18.47;100.00
47366;BME280;33105;47.964;7.982;2023-07-29T07:10:38;96324.41;;;18.42;100.00
47366;BME280;33105;47.964;7.982;2023-07-29T07:13:40;96317.28;;;18.49;100.00
47366;BME280;33105;47.964;7.982;2023-07-29T07:16:43;96315.28;;;18.32;100.00
47366;BME280;33105;47.964;7.982;2023-07-29T07:19:46;96322.41;;;18.16;100.00
47366;BME280;33105;47.964;7.982;2023-07-29T07:22:49;96316.56;;;18.18;100.00
47366;BME280;33105;47.964;7.982;2023-07-29T07:25:50;96314.31;;;18.28;100.00
47366;BME280;33105;47.964;7.982;2023-07-29T07:28:52;96317.25;;;18.41;100.00
47366;BME280;33105;47.964;7.982;2023-07-29T07:31:54;96311.75;;;18.49;100.00
47366;BME280;33105;47.964;7.982;2023-07-29T07:34:56;96315.50;;;18.53;100.00
47366;BME280;33105;47.964;7.982;2023-07-29T07:37:57;96308.41;;;18.78;100.00
47366;BME280;33105;47.964;7.982;2023-07-29T07:41:04;96312.28;;;18.86;100.00
47366;BME280;33105;47.964;7.982;2023-07-29T07:44:06;96313.94;;;18.78;100.00
47366;BME280;33105;47.964;7.982;2023-07-29T07:47:08;96307.72;;;18.90;100.00
47366;BME280;33105;47.964;7.982;2023-07-29T07:50:10;96304.31;;;19.01;100.00
47366;BME280;33105;47.964;7.982;2023-07-29T07:53:14;96303.78;;;19.08;100.00
47366;BME280;33105;47.964;7.982;2023-07-29T07:56:15;96292.41;;;19.10;100.00
47366;BME280;33105;47.964;7.982;2023-07-29T07:59:18;96298.09;;;19.22;100.00
47366;BME280;33105;47.964;7.982;2023-07-29T08:02:20;96306.19;;;19.44;100.00
47366;BME280;33105;47.964;7.982;2023-07-29T08:05:23;96306.53;;;19.43;100.00
47366;BME280;33105;47.964;7.982;2023-07-29T08:08:26;96317.00;;;19.28;100.00
47366;BME280;33105;47.964;7.982;2023-07-29T08:11:28;96307.16;;;19.40;100.00
47366;BME280;33105;47.964;7.982;2023-07-29T08:14:29;96304.94;;;19.80;100.00
47366;BME280;33105;47.964;7.982;2023-07-29T08:17:31;96300.69;;;20.20;93.77
47366;BME280;33105;47.964;7.982;2023-07-29T08:20:32;96304.03;;;20.43;96.75
47366;BME280;33105;47.964;7.982;2023-07-29T08:23:35;96310.59;;;20.59;96.04
47366;BME280;33105;47.964;7.982;2023-07-29T08:26:37;96309.41;;;20.69;97.28
47366;BME280;33105;47.964;7.982;2023-07-29T08:29:39;96313.50;;;20.33;98.58
47366;BME280;33105;47.964;7.982;2023-07-29T08:32:41;96302.63;;;20.28;100.00
47366;BME280;33105;47.964;7.982;2023-07-29T08:35:47;96305.03;;;20.30;99.83
47366;BME280;33105;47.964;7.982;2023-07-29T08:38:48;96312.13;;;20.19;100.00
47366;BME280;33105;47.964;7.982;2023-07-29T08:42:02;96315.75;;;20.49;97.37
47366;BME280;33105;47.964;7.982;2023-07-29T08:45:07;96319.38;;;20.41;94.13
47366;BME280;33105;47.964;7.982;2023-07-29T08:48:10;96324.41;;;20.47;91.81
47366;BME280;33105;47.964;7.982;2023-07-29T08:51:14;96321.28;;;20.49;92.04
47366;BME280;33105;47.964;7.982;2023-07-29T08:54:18;96317.22;;;20.46;92.23
47366;BME280;33105;47.964;7.982;2023-07-29T08:57:24;96336.53;;;19.96;97.21
47366;BME280;33105;47.964;7.982;2023-07-29T09:00:28;96326.84;;;20.11;94.17
47366;BME280;33105;47.964;7.982;2023-07-29T09:03:30;96333.16;;;20.20;94.54
47366;BME280;33105;47.964;7.982;2023-07-29T09:06:35;96327.16;;;20.09;96.46
47366;BME280;33105;47.964;7.982;2023-07-29T09:09:36;96323.56;;;19.79;100.00
47366;BME280;33105;47.964;7.982;2023-07-29T09:12:38;96332.72;;;20.09;96.21
47366;BME280;33105;47.964;7.982;2023-07-29T09:15:40;96335.09;;;20.28;92.55
47366;BME280;33105;47.964;7.982;2023-07-29T09:18:47;96336.19;;;20.65;91.42
47366;BME280;33105;47.964;7.982;2023-07-29T09:21:51;96334.50;;;20.52;91.49
47366;BME280;33105;47.964;7.982;2023-07-29T09:24:53;96327.44;;;20.54;91.29
47366;BME280;33105;47.964;7.982;2023-07-29T09:28:00;96331.56;;;20.78;91.51
47366;BME280;33105;47.964;7.982;2023-07-29T09:31:02;96313.63;;;20.46;91.95
47366;BME280;33105;47.964;7.982;2023-07-29T09:34:04;96312.16;;;20.90;83.74
47366;BME280;33105;47.964;7.982;2023-07-29T09:37:07;96312.91;;;21.20;85.66
47366;BME280;33105;47.964;7.982;2023-07-29T09:40:14;96316.16;;;21.01;89.43
47366;BME280;33105;47.964;7.982;2023-07-29T09:43:18;96307.41;;;21.32;85.38
47366;BME280;33105;47.964;7.982;2023-07-29T09:46:31;96312.41;;;21.71;84.79
47366;BME280;33105;47.964;7.982;2023-07-29T09:49:41;96306.19;;;22.11;80.50
47366;BME280;33105;47.964;7.982;2023-07-29T09:52:46;96309.00;;;22.23;81.89
47366;BME280;33105;47.964;7.982;2023-07-29T09:55:58;96305.38;;;22.35;78.40
47366;BME280;33105;47.964;7.982;2023-07-29T09:59:22;96308.97;;;22.60;75.66
47366;BME280;33105;47.964;7.982;2023-07-29T10:02:34;96323.59;;;22.32;74.57
47366;BME280;33105;47.964;7.982;2023-07-29T10:05:57;96313.84;;;22.63;78.04
47366;BME280;33105;47.964;7.982;2023-07-29T10:09:12;96322.66;;;22.53;74.92
47366;BME280;33105;47.964;7.982;2023-07-29T10:12:30;96322.66;;;22.53;73.15
47366;BME280;33105;47.964;7.982;2023-07-29T10:15:37;96331.94;;;22.69;76.10
47366;BME280;33105;47.964;7.982;2023-07-29T10:18:53;96340.16;;;22.78;74.22
47366;BME280;33105;47.964;7.982;2023-07-29T10:22:17;96321.59;;;22.94;73.18
47366;BME280;33105;47.964;7.982;2023-07-29T10:25:38;96327.00;;;23.02;72.27
47366;BME280;33105;47.964;7.982;2023-07-29T10:29:04;96330.47;;;23.12;70.54
47366;BME280;33105;47.964;7.982;2023-07-29T10:32:21;96323.84;;;23.44;70.72
47366;BME280;33105;47.964;7.982;2023-07-29T10:36:05;96321.28;;;23.95;68.51
47366;BME280;33105;47.964;7.982;2023-07-29T10:40:07;96312.25;;;23.70;65.87
47366;BME280;33105;47.964;7.982;2023-07-29T10:47:38;96314.53;;;23.96;72.09
47366;BME280;33105;47.964;7.982;2023-07-29T10:50:48;96300.28;;;24.01;70.52
47366;BME280;33105;47.964;7.982;2023-07-29T10:58:16;96301.81;;;24.14;69.34
47366;BME280;33105;47.964;7.982;2023-07-29T11:01:58;96311.72;;;24.59;64.10
47366;BME280;33105;47.964;7.982;2023-07-29T11:05:48;96308.75;;;24.87;67.67
47366;BME280;33105;47.964;7.982;2023-07-29T11:08:50;96304.72;;;25.19;66.08
47366;BME280;33105;47.964;7.982;2023-07-29T11:13:38;96296.66;;;25.56;63.29
47366;BME280;33105;47.964;7.982;2023-07-29T11:17:39;96294.31;;;25.39;62.73
47366;BME280;33105;47.964;7.982;2023-07-29T11:20:45;96308.41;;;25.23;61.31
47366;BME280;33105;47.964;7.982;2023-07-29T11:24:17;96298.22;;;24.80;63.01
47366;BME280;33105;47.964;7.982;2023-07-29T11:28:21;96293.72;;;24.40;65.15
47366;BME280;33105;47.964;7.982;2023-07-29T11:31:51;96285.78;;;24.11;66.12
47366;BME280;33105;47.964;7.982;2023-07-29T11:35:16;96290.75;;;24.49;64.87
47366;BME280;33105;47.964;7.982;2023-07-29T11:38:44;96299.03;;;24.14;62.32
47366;BME280;33105;47.964;7.982;2023-07-29T11:41:55;96284.34;;;24.17;64.48
47366;BME280;33105;47.964;7.982;2023-07-29T11:45:07;96283.81;;;24.27;67.34
47366;BME280;33105;47.964;7.982;2023-07-29T11:48:11;96299.66;;;24.23;62.49
47366;BME280;33105;47.964;7.982;2023-07-29T11:51:26;96292.28;;;24.47;60.36
47366;BME280;33105;47.964;7.982;2023-07-29T11:54:45;96286.88;;;24.06;59.57
47366;BME280;33105;47.964;7.982;2023-07-29T11:58:12;96284.00;;;24.03;64.59
47366;BME280;33105;47.964;7.982;2023-07-29T12:05:42;96280.91;;;23.77;61.33
47366;BME280;33105;47.964;7.982;2023-07-29T12:14:21;96272.81;;;24.03;62.07
47366;BME280;33105;47.964;7.982;2023-07-29T12:17:52;96267.78;;;23.77;60.88
47366;BME280;33105;47.964;7.982;2023-07-29T12:21:33;96276.59;;;23.35;64.25
47366;BME280;33105;47.964;7.982;2023-07-29T12:30:08;96264.84;;;23.14;62.59
47366;BME280;33105;47.964;7.982;2023-07-29T12:42:39;96280.44;;;23.31;64.58
47366;BME280;33105;47.964;7.982;2023-07-29T12:46:23;96287.47;;;23.25;63.66
47366;BME280;33105;47.964;7.982;2023-07-29T12:50:56;96292.13;;;23.21;66.44
47366;BME280;33105;47.964;7.982;2023-07-29T12:53:58;96293.19;;;23.44;64.98
47366;BME280;33105;47.964;7.982;2023-07-29T12:57:01;96292.25;;;23.40;64.83
47366;BME280;33105;47.964;7.982;2023-07-29T13:00:23;96290.38;;;23.44;63.19
47366;BME280;33105;47.964;7.982;2023-07-29T13:04:24;96290.44;;;23.32;66.30
47366;BME280;33105;47.964;7.982;2023-07-29T13:11:12;96300.13;;;23.50;64.57
47366;BME280;33105;47.964;7.982;2023-07-29T13:14:14;96308.84;;;23.49;63.60
47366;BME280;33105;47.964;7.982;2023-07-29T13:17:16;96292.81;;;23.46;64.40
47366;BME280;33105;47.964;7.982;2023-07-29T13:20:17;96309.69;;;23.37;65.12
47366;BME280;33105;47.964;7.982;2023-07-29T13:23:20;96307.81;;;23.41;61.24
47366;BME280;33105;47.964;7.982;2023-07-29T13:36:29;96305.06;;;24.16;60.71
47366;BME280;33105;47.964;7.982;2023-07-29T13:39:31;96299.63;;;24.55;57.69
47366;BME280;33105;47.964;7.982;2023-07-29T13:42:36;96313.34;;;24.28;56.45
47366;BME280;33105;47.964;7.982;2023-07-29T13:45:38;96316.13;;;24.13;57.03
47366;BME280;33105;47.964;7.982;2023-07-29T13:48:40;96312.91;;;24.11;57.30
47366;BME280;33105;47.964;7.982;2023-07-29T13:51:42;96304.53;;;23.95;58.43
47366;BME280;33105;47.964;7.982;2023-07-29T13:54:43;96324.69;;;24.04;60.24
47366;BME280;33105;47.964;7.982;2023-07-29T13:57:48;96320.34;;;24.06;56.62
47366;BME280;33105;47.964;7.982;2023-07-29T14:00:50;96312.16;;;23.82;57.51
47366;BME280;33105;47.964;7.982;2023-07-29T14:03:52;96312.41;;;23.61;58.21
47366;BME280;33105;47.964;7.982;2023-07-29T14:06:53;96311.13;;;23.59;60.92
47366;BME280;33105;47.964;7.982;2023-07-29T14:09:58;96307.44;;;23.55;62.47
47366;BME280;33105;47.964;7.982;2023-07-29T14:13:08;96305.50;;;23.43;60.47
47366;BME280;33105;47.964;7.982;2023-07-29T14:16:17;96307.72;;;23.37;61.51
47366;BME280;33105;47.964;7.982;2023-07-29T14:19:23;96311.38;;;22.98;64.81
47366;BME280;33105;47.964;7.982;2023-07-29T14:22:25;96324.03;;;22.83;63.00
47366;BME280;33105;47.964;7.982;2023-07-29T14:25:36;96332.28;;;22.67;62.83
47366;BME280;33105;47.964;7.982;2023-07-29T14:28:41;96346.31;;;22.34;65.86
47366;BME280;33105;47.964;7.982;2023-07-29T14:31:50;96353.88;;;22.22;69.85
47366;BME280;33105;47.964;7.982;2023-07-29T14:35:09;96361.00;;;21.98;72.67
47366;BME280;33105;47.964;7.982;2023-07-29T14:38:14;96366.34;;;21.37;78.34
47366;BME280;33105;47.964;7.982;2023-07-29T14:41:22;96363.66;;;21.29;80.10
47366;BME280;33105;47.964;7.982;2023-07-29T14:44:25;96369.44;;;21.24;81.82
47366;BME280;33105;47.964;7.982;2023-07-29T14:48:12;96365.47;;;21.04;82.33
47366;BME280;33105;47.964;7.982;2023-07-29T14:51:16;96365.09;;;20.64;85.39
47366;BME280;33105;47.964;7.982;2023-07-29T14:54:18;96361.31;;;20.30;88.88
47366;BME280;33105;47.964;7.982;2023-07-29T14:57:20;96364.53;;;20.12;90.70
47366;BME280;33105;47.964;7.982;2023-07-29T15:00:21;96358.53;;;20.01;93.46
47366;BME280;33105;47.964;7.982;2023-07-29T15:03:25;96359.34;;;20.69;94.25
47366;BME280;33105;47.964;7.982;2023-07-29T15:06:32;96364.78;;;20.86;93.51
47366;BME280;33105;47.964;7.982;2023-07-29T15:09:35;96355.25;;;20.75;93.63
47366;BME280;33105;47.964;7.982;2023-07-29T15:12:37;96349.75;;;20.87;93.85
47366;BME280;33105;47.964;7.982;2023-07-29T15:15:43;96347.78;;;20.67;88.68
47366;BME280;33105;47.964;7.982;2023-07-29T15:18:44;96340.38;;;20.50;93.00
47366;BME280;33105;47.964;7.982;2023-07-29T15:21:46;96348.06;;;20.74;92.57
47366;BME280;33105;47.964;7.982;2023-07-29T15:24:59;96354.56;;;20.99;94.39
47366;BME280;33105;47.964;7.982;2023-07-29T15:28:26;96342.84;;;20.93;89.65
47366;BME280;33105;47.964;7.982;2023-07-29T15:31:47;96347.44;;;20.89;88.83
47366;BME280;33105;47.964;7.982;2023-07-29T15:35:06;96338.97;;;20.86;90.44
47366;BME280;33105;47.964;7.982;2023-07-29T15:38:11;96343.31;;;20.95;92.38
47366;BME280;33105;47.964;7.982;2023-07-29T15:41:14;96342.38;;;21.12;90.76
47366;BME280;33105;47.964;7.982;2023-07-29T15:44:18;96334.97;;;21.37;87.56
47366;BME280;33105;47.964;7.982;2023-07-29T15:47:28;96319.72;;;21.43;91.34
47366;BME280;33105;47.964;7.982;2023-07-29T15:50:33;96319.59;;;21.85;84.08
47366;BME280;33105;47.964;7.982;2023-07-29T15:53:38;96317.47;;;21.69;81.97
47366;BME280;33105;47.964;7.982;2023-07-29T16:00:00;96310.44;;;21.84;82.16
47366;BME280;33105;47.964;7.982;2023-07-29T16:03:02;96309.09;;;21.57;80.07
47366;BME280;33105;47.964;7.982;2023-07-29T16:06:32;96322.59;;;21.14;79.50
47366;BME280;33105;47.964;7.982;2023-07-29T16:09:34;96314.53;;;21.54;78.50
47366;BME280;33105;47.964;7.982;2023-07-29T16:12:42;96314.78;;;21.61;75.05
47366;BME280;33105;47.964;7.982;2023-07-29T16:15:46;96311.47;;;21.34;79.72
47366;BME280;33105;47.964;7.982;2023-07-29T16:18:48;96318.47;;;20.99;78.80
47366;BME280;33105;47.964;7.982;2023-07-29T16:21:51;96317.56;;;21.07;78.61
47366;BME280;33105;47.964;7.982;2023-07-29T16:24:52;96301.47;;;21.00;77.67
47366;BME280;33105;47.964;7.982;2023-07-29T16:27:54;96302.19;;;21.30;77.01
47366;BME280;33105;47.964;7.982;2023-07-29T16:31:12;96313.44;;;21.34;78.99
47366;BME280;33105;47.964;7.982;2023-07-29T16:34:14;96316.81;;;21.39;77.08
47366;BME280;33105;47.964;7.982;2023-07-29T16:37:26;96314.44;;;21.50;78.24
47366;BME280;33105;47.964;7.982;2023-07-29T16:40:27;96322.72;;;21.38;76.86
47366;BME280;33105;47.964;7.982;2023-07-29T16:43:38;96320.59;;;21.23;78.71
47366;BME280;33105;47.964;7.982;2023-07-29T16:46:59;96310.66;;;21.34;76.62
47366;BME280;33105;47.964;7.982;2023-07-29T16:50:13;96316.22;;;21.34;76.54
47366;BME280;33105;47.964;7.982;2023-07-29T16:53:16;96326.94;;;21.02;78.50
47366;BME280;33105;47.964;7.982;2023-07-29T16:56:17;96330.41;;;20.79;75.75
47366;BME280;33105;47.964;7.982;2023-07-29T16:59:22;96332.22;;;20.75;78.51
47366;BME280;33105;47.964;7.982;2023-07-29T17:02:23;96330.66;;;20.65;79.79
47366;BME280;33105;47.964;7.982;2023-07-29T17:05:25;96337.69;;;20.62;80.01
47366;BME280;33105;47.964;7.982;2023-07-29T17:08:32;96329.75;;;20.52;78.90
47366;BME280;33105;47.964;7.982;2023-07-29T17:11:33;96336.56;;;20.25;78.58
47366;BME280;33105;47.964;7.982;2023-07-29T17:14:35;96341.47;;;20.58;78.10
47366;BME280;33105;47.964;7.982;2023-07-29T17:17:37;96339.47;;;20.37;77.57
47366;BME280;33105;47.964;7.982;2023-07-29T17:20:40;96338.19;;;20.26;79.50
47366;BME280;33105;47.964;7.982;2023-07-29T17:23:42;96345.06;;;20.20;80.21
47366;BME280;33105;47.964;7.982;2023-07-29T17:26:44;96343.69;;;20.44;80.42
47366;BME280;33105;47.964;7.982;2023-07-29T17:29:46;96342.53;;;20.45;80.44
47366;BME280;33105;47.964;7.982;2023-07-29T17:32:48;96341.31;;;20.25;80.88
47366;BME280;33105;47.964;7.982;2023-07-29T17:35:53;96335.22;;;20.31;83.59
47366;BME280;33105;47.964;7.982;2023-07-29T17:38:56;96337.41;;;20.17;81.56
47366;BME280;33105;47.964;7.982;2023-07-29T17:41:58;96346.41;;;20.14;84.83
47366;BME280;33105;47.964;7.982;2023-07-29T17:44:59;96341.50;;;20.20;87.02
47366;BME280;33105;47.964;7.982;2023-07-29T17:48:03;96341.81;;;20.18;88.01
47366;BME280;33105;47.964;7.982;2023-07-29T17:51:05;96340.97;;;20.26;88.61
47366;BME280;33105;47.964;7.982;2023-07-29T17:54:07;96343.63;;;20.14;87.92
47366;BME280;33105;47.964;7.982;2023-07-29T17:57:08;96345.72;;;20.26;90.09
47366;BME280;33105;47.964;7.982;2023-07-29T18:00:10;96336.03;;;20.32;92.25
47366;BME280;33105;47.964;7.982;2023-07-29T18:03:11;96342.88;;;20.34;92.26
47366;BME280;33105;47.964;7.982;2023-07-29T18:06:16;96333.03;;;20.16;90.84
47366;BME280;33105;47.964;7.982;2023-07-29T18:09:18;96341.25;;;20.04;91.24
47366;BME280;33105;47.964;7.982;2023-07-29T18:12:24;96331.03;;;19.87;91.46
47366;BME280;33105;47.964;7.982;2023-07-29T18:15:30;96339.75;;;20.07;93.15
47366;BME280;33105;47.964;7.982;2023-07-29T18:18:32;96352.28;;;20.13;93.21
47366;BME280;33105;47.964;7.982;2023-07-29T18:21:34;96342.66;;;20.10;93.11
47366;BME280;33105;47.964;7.982;2023-07-29T18:24:37;96342.66;;;20.10;94.14
47366;BME280;33105;47.964;7.982;2023-07-29T18:27:40;96342.72;;;20.01;93.96